sensor_id;sensor_type;location;lat;lon;timestamp;temperature;humidity
55083;DHT22;40978;52.850;6.506;2023-12-28T00:00:28;9.60;99.90
55083;DHT22;40978;52.850;6.506;2023-12-28T00:02:53;9.70;99.90
55083;DHT22;40978;52.850;6.506;2023-12-28T00:05:19;9.70;99.90
55083;DHT22;40978;52.850;6.506;2023-12-28T00:07:45;9.80;99.90
55083;DHT22;40978;52.850;6.506;2023-12-28T00:10:10;9.80;99.90
55083;DHT22;40978;52.850;6.506;2023-12-28T00:12:36;9.90;99.90
55083;DHT22;40978;52.850;6.506;2023-12-28T00:15:02;9.90;99.90
55083;DHT22;40978;52.850;6.506;2023-12-28T00:17:28;9.90;99.90
55083;DHT22;40978;52.850;6.506;2023-12-28T00:19:53;10.00;99.90
55083;DHT22;40978;52.850;6.506;2023-12-28T00:22:20;10.00;99.90
55083;DHT22;40978;52.850;6.506;2023-12-28T00:24:45;10.10;99.90
55083;DHT22;40978;52.850;6.506;2023-12-28T00:27:11;10.10;99.90
55083;DHT22;40978;52.850;6.506;2023-12-28T00:29:37;10.10;99.90
55083;DHT22;40978;52.850;6.506;2023-12-28T00:32:07;10.10;99.90
55083;DHT22;40978;52.850;6.506;2023-12-28T00:34:33;10.10;99.90
55083;DHT22;40978;52.850;6.506;2023-12-28T00:36:58;10.10;99.90
55083;DHT22;40978;52.850;6.506;2023-12-28T00:39:24;10.10;99.90
55083;DHT22;40978;52.850;6.506;2023-12-28T00:41:50;10.10;99.90
55083;DHT22;40978;52.850;6.506;2023-12-28T00:44:16;10.10;99.90
55083;DHT22;40978;52.850;6.506;2023-12-28T00:46:42;10.10;99.90
55083;DHT22;40978;52.850;6.506;2023-12-28T00:49:07;10.10;99.90
55083;DHT22;40978;52.850;6.506;2023-12-28T00:51:34;10.10;99.90
55083;DHT22;40978;52.850;6.506;2023-12-28T00:53:59;10.10;99.90
55083;DHT22;40978;52.850;6.506;2023-12-28T00:56:25;10.10;99.90
55083;DHT22;40978;52.850;6.506;2023-12-28T00:58:51;10.20;99.90
55083;DHT22;40978;52.850;6.506;2023-12-28T01:01:17;10.20;99.90
55083;DHT22;40978;52.850;6.506;2023-12-28T01:03:42;10.20;99.90
55083;DHT22;40978;52.850;6.506;2023-12-28T01:06:08;10.20;99.90
55083;DHT22;40978;52.850;6.506;2023-12-28T01:08:34;10.10;99.90
55083;DHT22;40978;52.850;6.506;2023-12-28T01:11:00;10.10;99.90
55083;DHT22;40978;52.850;6.506;2023-12-28T01:13:27;10.10;99.90
55083;DHT22;40978;52.850;6.506;2023-12-28T01:15:53;10.10;99.90
55083;DHT22;40978;52.850;6.506;2023-12-28T01:18:19;10.10;99.90
55083;DHT22;40978;52.850;6.506;2023-12-28T01:20:45;10.10;99.90
55083;DHT22;40978;52.850;6.506;2023-12-28T01:23:11;10.00;99.90
55083;DHT22;40978;52.850;6.506;2023-12-28T01:25:37;10.10;99.90
55083;DHT22;40978;52.850;6.506;2023-12-28T01:28:03;10.00;99.90
55083;DHT22;40978;52.850;6.506;2023-12-28T01:30:29;10.00;99.90
55083;DHT22;40978;52.850;6.506;2023-12-28T01:32:54;10.00;99.90
55083;DHT22;40978;52.850;6.506;2023-12-28T01:35:20;10.00;99.90
55083;DHT22;40978;52.850;6.506;2023-12-28T01:37:46;10.00;99.90
55083;DHT22;40978;52.850;6.506;2023-12-28T01:40:11;10.00;99.90
55083;DHT22;40978;52.850;6.506;2023-12-28T01:42:37;10.00;99.90
55083;DHT22;40978;52.850;6.506;2023-12-28T01:45:03;10.00;99.90
55083;DHT22;40978;52.850;6.506;2023-12-28T01:47:30;10.00;99.90
55083;DHT22;40978;52.850;6.506;2023-12-28T01:49:56;10.00;99.90
55083;DHT22;40978;52.850;6.506;2023-12-28T01:52:22;10.00;99.90
55083;DHT22;40978;52.850;6.506;2023-12-28T01:54:48;10.10;99.90
55083;DHT22;40978;52.850;6.506;2023-12-28T01:57:15;10.10;99.90
55083;DHT22;40978;52.850;6.506;2023-12-28T01:59:42;10.10;99.90
55083;DHT22;40978;52.850;6.506;2023-12-28T02:02:08;10.10;99.90
55083;DHT22;40978;52.850;6.506;2023-12-28T02:04:34;10.10;99.90
55083;DHT22;40978;52.850;6.506;2023-12-28T02:07:00;10.10;99.90
55083;DHT22;40978;52.850;6.506;2023-12-28T02:09:26;10.10;99.90
55083;DHT22;40978;52.850;6.506;2023-12-28T02:11:53;10.20;99.90
55083;DHT22;40978;52.850;6.506;2023-12-28T02:14:20;10.20;99.90
55083;DHT22;40978;52.850;6.506;2023-12-28T02:17:10;10.20;99.90
55083;DHT22;40978;52.850;6.506;2023-12-28T02:19:47;10.20;99.90
55083;DHT22;40978;52.850;6.506;2023-12-28T02:22:15;10.20;99.90
55083;DHT22;40978;52.850;6.506;2023-12-28T02:27:29;10.20;99.90
55083;DHT22;40978;52.850;6.506;2023-12-28T02:29:55;10.30;99.90
55083;DHT22;40978;52.850;6.506;2023-12-28T02:32:28;10.30;99.90
55083;DHT22;40978;52.850;6.506;2023-12-28T02:35:04;10.30;99.90
55083;DHT22;40978;52.850;6.506;2023-12-28T02:37:31;10.30;99.90
55083;DHT22;40978;52.850;6.506;2023-12-28T02:39:58;10.30;99.90
55083;DHT22;40978;52.850;6.506;2023-12-28T02:42:24;10.40;99.90
55083;DHT22;40978;52.850;6.506;2023-12-28T02:44:50;10.40;99.90
55083;DHT22;40978;52.850;6.506;2023-12-28T02:47:16;10.50;99.90
55083;DHT22;40978;52.850;6.506;2023-12-28T02:49:41;10.60;99.90
55083;DHT22;40978;52.850;6.506;2023-12-28T02:52:07;10.60;99.90
55083;DHT22;40978;52.850;6.506;2023-12-28T02:54:33;10.70;99.90
55083;DHT22;40978;52.850;6.506;2023-12-28T02:56:59;10.70;99.90
55083;DHT22;40978;52.850;6.506;2023-12-28T02:59:24;10.80;99.90
55083;DHT22;40978;52.850;6.506;2023-12-28T03:01:50;10.70;99.90
55083;DHT22;40978;52.850;6.506;2023-12-28T03:04:16;10.80;99.90
55083;DHT22;40978;52.850;6.506;2023-12-28T03:06:41;10.80;99.90
55083;DHT22;40978;52.850;6.506;2023-12-28T03:09:07;10.80;99.90
55083;DHT22;40978;52.850;6.506;2023-12-28T03:11:33;10.90;99.90
55083;DHT22;40978;52.850;6.506;2023-12-28T03:13:59;10.90;99.90
55083;DHT22;40978;52.850;6.506;2023-12-28T03:16:25;10.90;99.90
55083;DHT22;40978;52.850;6.506;2023-12-28T03:18:50;10.90;99.90
55083;DHT22;40978;52.850;6.506;2023-12-28T03:21:16;10.90;99.90
55083;DHT22;40978;52.850;6.506;2023-12-28T03:23:42;10.80;99.90
55083;DHT22;40978;52.850;6.506;2023-12-28T03:26:08;10.80;99.90
55083;DHT22;40978;52.850;6.506;2023-12-28T03:28:33;10.70;99.90
55083;DHT22;40978;52.850;6.506;2023-12-28T03:31:02;10.70;99.90
55083;DHT22;40978;52.850;6.506;2023-12-28T03:33:27;10.70;99.90
55083;DHT22;40978;52.850;6.506;2023-12-28T03:35:53;10.80;99.90
55083;DHT22;40978;52.850;6.506;2023-12-28T03:38:19;10.70;99.90
55083;DHT22;40978;52.850;6.506;2023-12-28T03:40:45;10.80;99.90
55083;DHT22;40978;52.850;6.506;2023-12-28T03:43:13;10.80;99.90
55083;DHT22;40978;52.850;6.506;2023-12-28T03:45:39;10.90;99.90
55083;DHT22;40978;52.850;6.506;2023-12-28T03:48:04;10.90;99.90
55083;DHT22;40978;52.850;6.506;2023-12-28T03:50:30;10.90;99.90
55083;DHT22;40978;52.850;6.506;2023-12-28T03:52:56;10.90;99.90
55083;DHT22;40978;52.850;6.506;2023-12-28T03:55:24;11.00;99.90
55083;DHT22;40978;52.850;6.506;2023-12-28T03:57:50;11.00;99.90
55083;DHT22;40978;52.850;6.506;2023-12-28T04:00:16;11.00;99.90
55083;DHT22;40978;52.850;6.506;2023-12-28T04:02:42;11.00;99.90
55083;DHT22;40978;52.850;6.506;2023-12-28T04:05:08;11.00;99.90
55083;DHT22;40978;52.850;6.506;2023-12-28T04:07:34;11.00;99.90
55083;DHT22;40978;52.850;6.506;2023-12-28T04:09:59;10.90;99.90
55083;DHT22;40978;52.850;6.506;2023-12-28T04:12:25;11.00;99.90
55083;DHT22;40978;52.850;6.506;2023-12-28T04:14:51;11.00;99.90
55083;DHT22;40978;52.850;6.506;2023-12-28T04:17:17;11.00;99.90
55083;DHT22;40978;52.850;6.506;2023-12-28T04:19:43;11.00;99.90
55083;DHT22;40978;52.850;6.506;2023-12-28T04:22:08;11.00;99.90
55083;DHT22;40978;52.850;6.506;2023-12-28T04:24:34;11.00;99.90
55083;DHT22;40978;52.850;6.506;2023-12-28T04:27:00;11.00;99.90
55083;DHT22;40978;52.850;6.506;2023-12-28T04:29:25;11.00;99.90
55083;DHT22;40978;52.850;6.506;2023-12-28T04:31:51;11.00;99.90
55083;DHT22;40978;52.850;6.506;2023-12-28T04:34:17;11.00;99.90
55083;DHT22;40978;52.850;6.506;2023-12-28T04:36:42;11.00;99.90
55083;DHT22;40978;52.850;6.506;2023-12-28T04:39:10;11.00;99.90
55083;DHT22;40978;52.850;6.506;2023-12-28T04:41:35;11.00;99.90
55083;DHT22;40978;52.850;6.506;2023-12-28T04:44:01;11.10;99.90
55083;DHT22;40978;52.850;6.506;2023-12-28T04:46:27;11.10;99.90
55083;DHT22;40978;52.850;6.506;2023-12-28T04:48:52;11.10;99.90
55083;DHT22;40978;52.850;6.506;2023-12-28T04:51:18;11.20;99.90
55083;DHT22;40978;52.850;6.506;2023-12-28T04:53:44;11.20;99.90
55083;DHT22;40978;52.850;6.506;2023-12-28T04:56:09;11.20;99.90
55083;DHT22;40978;52.850;6.506;2023-12-28T04:58:35;11.20;99.90
55083;DHT22;40978;52.850;6.506;2023-12-28T05:01:01;11.30;99.90
55083;DHT22;40978;52.850;6.506;2023-12-28T05:03:28;11.30;99.90
55083;DHT22;40978;52.850;6.506;2023-12-28T05:05:53;11.30;99.90
55083;DHT22;40978;52.850;6.506;2023-12-28T05:08:19;11.30;99.90
55083;DHT22;40978;52.850;6.506;2023-12-28T05:10:45;11.30;99.90
55083;DHT22;40978;52.850;6.506;2023-12-28T05:13:11;11.30;99.90
55083;DHT22;40978;52.850;6.506;2023-12-28T05:15:36;11.40;99.90
55083;DHT22;40978;52.850;6.506;2023-12-28T05:18:02;11.40;99.90
55083;DHT22;40978;52.850;6.506;2023-12-28T05:20:29;11.40;99.90
55083;DHT22;40978;52.850;6.506;2023-12-28T05:22:55;11.50;99.90
55083;DHT22;40978;52.850;6.506;2023-12-28T05:25:20;11.50;99.90
55083;DHT22;40978;52.850;6.506;2023-12-28T05:27:46;11.40;99.90
55083;DHT22;40978;52.850;6.506;2023-12-28T05:30:12;11.40;99.90
55083;DHT22;40978;52.850;6.506;2023-12-28T05:32:38;11.40;99.90
55083;DHT22;40978;52.850;6.506;2023-12-28T05:35:04;11.50;99.90
55083;DHT22;40978;52.850;6.506;2023-12-28T05:37:29;11.50;99.90
55083;DHT22;40978;52.850;6.506;2023-12-28T05:39:55;11.40;99.90
55083;DHT22;40978;52.850;6.506;2023-12-28T05:42:21;11.50;99.90
55083;DHT22;40978;52.850;6.506;2023-12-28T05:44:46;11.50;99.90
55083;DHT22;40978;52.850;6.506;2023-12-28T05:47:12;11.50;99.90
55083;DHT22;40978;52.850;6.506;2023-12-28T05:49:38;11.50;99.90
55083;DHT22;40978;52.850;6.506;2023-12-28T05:52:04;11.50;99.90
55083;DHT22;40978;52.850;6.506;2023-12-28T05:54:29;11.50;99.90
55083;DHT22;40978;52.850;6.506;2023-12-28T05:56:55;11.50;99.90
55083;DHT22;40978;52.850;6.506;2023-12-28T05:59:21;11.50;99.90
55083;DHT22;40978;52.850;6.506;2023-12-28T06:01:47;11.60;99.90
55083;DHT22;40978;52.850;6.506;2023-12-28T06:04:13;11.60;99.90
55083;DHT22;40978;52.850;6.506;2023-12-28T06:06:39;11.50;99.90
55083;DHT22;40978;52.850;6.506;2023-12-28T06:09:05;11.50;99.90
55083;DHT22;40978;52.850;6.506;2023-12-28T06:11:30;11.60;99.90
55083;DHT22;40978;52.850;6.506;2023-12-28T06:13:56;11.60;99.90
55083;DHT22;40978;52.850;6.506;2023-12-28T06:16:22;11.60;99.90
55083;DHT22;40978;52.850;6.506;2023-12-28T06:18:48;11.60;99.90
55083;DHT22;40978;52.850;6.506;2023-12-28T06:21:14;11.60;99.90
55083;DHT22;40978;52.850;6.506;2023-12-28T06:23:40;11.60;99.90
55083;DHT22;40978;52.850;6.506;2023-12-28T06:26:06;11.60;99.90
55083;DHT22;40978;52.850;6.506;2023-12-28T06:28:32;11.60;99.90
55083;DHT22;40978;52.850;6.506;2023-12-28T06:30:58;11.60;99.90
55083;DHT22;40978;52.850;6.506;2023-12-28T06:33:27;11.50;99.90
55083;DHT22;40978;52.850;6.506;2023-12-28T06:35:53;11.50;99.90
55083;DHT22;40978;52.850;6.506;2023-12-28T06:38:19;11.50;99.90
55083;DHT22;40978;52.850;6.506;2023-12-28T06:40:44;11.50;99.90
55083;DHT22;40978;52.850;6.506;2023-12-28T06:43:10;11.50;99.90
55083;DHT22;40978;52.850;6.506;2023-12-28T06:45:36;11.50;99.90
55083;DHT22;40978;52.850;6.506;2023-12-28T06:48:01;11.60;99.90
55083;DHT22;40978;52.850;6.506;2023-12-28T06:50:27;11.60;99.90
55083;DHT22;40978;52.850;6.506;2023-12-28T06:52:53;11.60;99.90
55083;DHT22;40978;52.850;6.506;2023-12-28T06:55:18;11.60;99.90
55083;DHT22;40978;52.850;6.506;2023-12-28T06:57:44;11.60;99.90
55083;DHT22;40978;52.850;6.506;2023-12-28T07:00:10;11.60;99.90
55083;DHT22;40978;52.850;6.506;2023-12-28T07:02:36;11.60;99.90
55083;DHT22;40978;52.850;6.506;2023-12-28T07:05:02;11.70;99.90
55083;DHT22;40978;52.850;6.506;2023-12-28T07:07:29;11.60;99.90
55083;DHT22;40978;52.850;6.506;2023-12-28T07:09:55;11.70;99.90
55083;DHT22;40978;52.850;6.506;2023-12-28T07:12:20;11.70;99.90
55083;DHT22;40978;52.850;6.506;2023-12-28T07:14:46;11.70;99.90
55083;DHT22;40978;52.850;6.506;2023-12-28T07:17:12;11.70;99.90
55083;DHT22;40978;52.850;6.506;2023-12-28T07:19:43;11.70;99.90
55083;DHT22;40978;52.850;6.506;2023-12-28T07:22:08;11.70;99.90
55083;DHT22;40978;52.850;6.506;2023-12-28T07:24:34;11.70;99.90
55083;DHT22;40978;52.850;6.506;2023-12-28T07:27:00;11.70;99.90
55083;DHT22;40978;52.850;6.506;2023-12-28T07:29:25;11.70;99.90
55083;DHT22;40978;52.850;6.506;2023-12-28T07:31:51;11.70;99.90
55083;DHT22;40978;52.850;6.506;2023-12-28T07:34:17;11.60;99.90
55083;DHT22;40978;52.850;6.506;2023-12-28T07:36:43;11.60;99.90
55083;DHT22;40978;52.850;6.506;2023-12-28T07:39:10;11.70;99.90
55083;DHT22;40978;52.850;6.506;2023-12-28T07:41:36;11.60;99.90
55083;DHT22;40978;52.850;6.506;2023-12-28T07:44:01;11.60;99.90
55083;DHT22;40978;52.850;6.506;2023-12-28T07:46:27;11.70;99.90
55083;DHT22;40978;52.850;6.506;2023-12-28T07:48:53;11.70;99.90
55083;DHT22;40978;52.850;6.506;2023-12-28T07:51:18;11.70;99.90
55083;DHT22;40978;52.850;6.506;2023-12-28T07:53:44;11.70;99.90
55083;DHT22;40978;52.850;6.506;2023-12-28T07:56:10;11.70;99.90
55083;DHT22;40978;52.850;6.506;2023-12-28T07:58:35;11.70;99.90
55083;DHT22;40978;52.850;6.506;2023-12-28T08:01:03;11.70;99.90
55083;DHT22;40978;52.850;6.506;2023-12-28T08:03:29;11.70;99.90
55083;DHT22;40978;52.850;6.506;2023-12-28T08:05:54;11.60;99.90
55083;DHT22;40978;52.850;6.506;2023-12-28T08:08:20;11.60;99.90
55083;DHT22;40978;52.850;6.506;2023-12-28T08:10:46;11.60;99.90
55083;DHT22;40978;52.850;6.506;2023-12-28T08:13:12;11.60;99.90
55083;DHT22;40978;52.850;6.506;2023-12-28T08:15:37;11.60;99.90
55083;DHT22;40978;52.850;6.506;2023-12-28T08:18:03;11.60;99.90
55083;DHT22;40978;52.850;6.506;2023-12-28T08:20:29;11.60;99.90
55083;DHT22;40978;52.850;6.506;2023-12-28T08:22:55;11.50;99.90
55083;DHT22;40978;52.850;6.506;2023-12-28T08:25:21;11.60;99.90
55083;DHT22;40978;52.850;6.506;2023-12-28T08:27:48;11.60;99.90
55083;DHT22;40978;52.850;6.506;2023-12-28T08:30:14;11.60;99.90
55083;DHT22;40978;52.850;6.506;2023-12-28T08:32:39;11.60;99.90
55083;DHT22;40978;52.850;6.506;2023-12-28T08:35:05;11.60;99.90
55083;DHT22;40978;52.850;6.506;2023-12-28T08:37:32;11.60;99.90
55083;DHT22;40978;52.850;6.506;2023-12-28T08:39:58;11.60;99.90
55083;DHT22;40978;52.850;6.506;2023-12-28T08:42:24;11.70;99.90
55083;DHT22;40978;52.850;6.506;2023-12-28T08:44:53;11.60;99.90
55083;DHT22;40978;52.850;6.506;2023-12-28T08:47:49;11.70;99.90
55083;DHT22;40978;52.850;6.506;2023-12-28T08:50:14;11.70;99.90
55083;DHT22;40978;52.850;6.506;2023-12-28T08:52:40;11.70;99.90
55083;DHT22;40978;52.850;6.506;2023-12-28T08:55:17;11.70;99.90
55083;DHT22;40978;52.850;6.506;2023-12-28T08:57:43;11.70;99.90
55083;DHT22;40978;52.850;6.506;2023-12-28T09:00:10;11.60;99.90
55083;DHT22;40978;52.850;6.506;2023-12-28T09:02:36;11.70;99.90
55083;DHT22;40978;52.850;6.506;2023-12-28T09:05:03;11.60;99.90
55083;DHT22;40978;52.850;6.506;2023-12-28T09:07:34;11.70;99.90
55083;DHT22;40978;52.850;6.506;2023-12-28T09:10:02;11.60;99.90
55083;DHT22;40978;52.850;6.506;2023-12-28T09:12:29;11.70;99.90
55083;DHT22;40978;52.850;6.506;2023-12-28T09:14:54;11.70;99.90
55083;DHT22;40978;52.850;6.506;2023-12-28T09:17:23;11.70;99.90
55083;DHT22;40978;52.850;6.506;2023-12-28T09:19:49;11.70;99.90
55083;DHT22;40978;52.850;6.506;2023-12-28T09:22:15;11.70;99.90
55083;DHT22;40978;52.850;6.506;2023-12-28T09:24:41;11.70;99.90
55083;DHT22;40978;52.850;6.506;2023-12-28T09:27:06;11.80;99.90
55083;DHT22;40978;52.850;6.506;2023-12-28T09:29:32;11.80;99.90
55083;DHT22;40978;52.850;6.506;2023-12-28T09:31:59;11.80;99.90
55083;DHT22;40978;52.850;6.506;2023-12-28T09:34:25;11.80;99.90
55083;DHT22;40978;52.850;6.506;2023-12-28T09:36:50;11.80;99.90
55083;DHT22;40978;52.850;6.506;2023-12-28T09:39:16;11.80;99.90
55083;DHT22;40978;52.850;6.506;2023-12-28T09:41:47;11.90;99.90
55083;DHT22;40978;52.850;6.506;2023-12-28T09:44:15;11.80;99.90
55083;DHT22;40978;52.850;6.506;2023-12-28T09:46:42;11.90;99.90
55083;DHT22;40978;52.850;6.506;2023-12-28T09:49:10;11.90;99.90
55083;DHT22;40978;52.850;6.506;2023-12-28T09:51:36;11.90;99.90
55083;DHT22;40978;52.850;6.506;2023-12-28T09:54:05;11.90;99.90
55083;DHT22;40978;52.850;6.506;2023-12-28T09:56:32;11.90;99.90
55083;DHT22;40978;52.850;6.506;2023-12-28T09:58:59;11.90;99.90
55083;DHT22;40978;52.850;6.506;2023-12-28T10:01:25;12.00;99.90
55083;DHT22;40978;52.850;6.506;2023-12-28T10:03:50;11.90;99.90
55083;DHT22;40978;52.850;6.506;2023-12-28T10:06:16;11.90;99.90
55083;DHT22;40978;52.850;6.506;2023-12-28T10:08:49;11.90;99.90
55083;DHT22;40978;52.850;6.506;2023-12-28T10:11:16;11.90;99.90
55083;DHT22;40978;52.850;6.506;2023-12-28T10:13:42;12.00;99.90
55083;DHT22;40978;52.850;6.506;2023-12-28T10:16:12;12.00;99.90
55083;DHT22;40978;52.850;6.506;2023-12-28T10:18:41;12.00;99.90
55083;DHT22;40978;52.850;6.506;2023-12-28T10:21:08;12.00;99.90
55083;DHT22;40978;52.850;6.506;2023-12-28T10:23:34;12.00;99.90
55083;DHT22;40978;52.850;6.506;2023-12-28T10:26:00;12.00;99.90
55083;DHT22;40978;52.850;6.506;2023-12-28T10:28:26;12.00;99.90
55083;DHT22;40978;52.850;6.506;2023-12-28T10:30:55;12.00;99.90
55083;DHT22;40978;52.850;6.506;2023-12-28T10:33:22;12.00;99.90
55083;DHT22;40978;52.850;6.506;2023-12-28T10:35:50;12.00;99.90
55083;DHT22;40978;52.850;6.506;2023-12-28T10:38:16;12.00;99.90
55083;DHT22;40978;52.850;6.506;2023-12-28T10:40:44;12.00;99.90
55083;DHT22;40978;52.850;6.506;2023-12-28T10:43:15;12.00;99.90
55083;DHT22;40978;52.850;6.506;2023-12-28T10:45:42;12.10;99.90
55083;DHT22;40978;52.850;6.506;2023-12-28T10:48:12;12.00;99.90
55083;DHT22;40978;52.850;6.506;2023-12-28T10:50:42;12.10;99.90
55083;DHT22;40978;52.850;6.506;2023-12-28T10:53:33;12.00;99.90
55083;DHT22;40978;52.850;6.506;2023-12-28T11:01:09;12.00;99.90
55083;DHT22;40978;52.850;6.506;2023-12-28T11:03:37;12.00;99.90
55083;DHT22;40978;52.850;6.506;2023-12-28T11:06:07;12.00;99.90
55083;DHT22;40978;52.850;6.506;2023-12-28T11:08:34;12.00;99.90
55083;DHT22;40978;52.850;6.506;2023-12-28T11:11:01;12.00;99.90
55083;DHT22;40978;52.850;6.506;2023-12-28T11:13:32;12.00;99.90
55083;DHT22;40978;52.850;6.506;2023-12-28T11:15:59;12.00;99.90
55083;DHT22;40978;52.850;6.506;2023-12-28T11:18:26;12.00;99.90
55083;DHT22;40978;52.850;6.506;2023-12-28T11:20:53;12.00;99.90
55083;DHT22;40978;52.850;6.506;2023-12-28T11:23:19;12.00;99.90
55083;DHT22;40978;52.850;6.506;2023-12-28T11:25:45;12.00;99.90
55083;DHT22;40978;52.850;6.506;2023-12-28T11:28:12;11.90;99.90
55083;DHT22;40978;52.850;6.506;2023-12-28T11:30:41;12.00;99.90
55083;DHT22;40978;52.850;6.506;2023-12-28T11:33:10;12.00;99.90
55083;DHT22;40978;52.850;6.506;2023-12-28T11:35:39;12.00;99.90
55083;DHT22;40978;52.850;6.506;2023-12-28T11:38:08;12.00;99.90
55083;DHT22;40978;52.850;6.506;2023-12-28T11:40:41;12.00;99.90
55083;DHT22;40978;52.850;6.506;2023-12-28T11:43:18;12.00;99.90
55083;DHT22;40978;52.850;6.506;2023-12-28T11:45:54;12.00;99.90
55083;DHT22;40978;52.850;6.506;2023-12-28T11:48:28;12.00;99.90
55083;DHT22;40978;52.850;6.506;2023-12-28T11:51:00;12.10;99.90
55083;DHT22;40978;52.850;6.506;2023-12-28T11:53:27;12.00;99.90
55083;DHT22;40978;52.850;6.506;2023-12-28T11:55:59;12.00;99.90
55083;DHT22;40978;52.850;6.506;2023-12-28T11:58:26;12.00;99.90
55083;DHT22;40978;52.850;6.506;2023-12-28T12:00:52;12.00;99.90
55083;DHT22;40978;52.850;6.506;2023-12-28T12:03:18;12.00;99.90
55083;DHT22;40978;52.850;6.506;2023-12-28T12:05:45;12.10;99.90
55083;DHT22;40978;52.850;6.506;2023-12-28T12:08:10;12.10;99.90
55083;DHT22;40978;52.850;6.506;2023-12-28T12:10:40;12.10;99.90
55083;DHT22;40978;52.850;6.506;2023-12-28T12:13:07;12.10;99.90
55083;DHT22;40978;52.850;6.506;2023-12-28T12:15:32;12.10;99.90
55083;DHT22;40978;52.850;6.506;2023-12-28T12:17:58;12.10;99.90
55083;DHT22;40978;52.850;6.506;2023-12-28T12:20:24;12.10;99.90
55083;DHT22;40978;52.850;6.506;2023-12-28T12:22:50;12.10;99.90
55083;DHT22;40978;52.850;6.506;2023-12-28T12:25:16;12.10;99.90
55083;DHT22;40978;52.850;6.506;2023-12-28T12:27:44;12.10;99.90
55083;DHT22;40978;52.850;6.506;2023-12-28T12:30:09;12.10;99.90
55083;DHT22;40978;52.850;6.506;2023-12-28T12:32:35;12.00;99.90
55083;DHT22;40978;52.850;6.506;2023-12-28T12:35:11;12.10;99.90
55083;DHT22;40978;52.850;6.506;2023-12-28T12:37:37;12.00;99.90
55083;DHT22;40978;52.850;6.506;2023-12-28T12:40:04;12.10;99.90
55083;DHT22;40978;52.850;6.506;2023-12-28T12:42:32;12.10;99.90
55083;DHT22;40978;52.850;6.506;2023-12-28T12:44:58;12.10;99.90
55083;DHT22;40978;52.850;6.506;2023-12-28T12:47:24;12.10;99.90
55083;DHT22;40978;52.850;6.506;2023-12-28T12:49:55;12.10;99.90
55083;DHT22;40978;52.850;6.506;2023-12-28T12:52:21;12.10;99.90
55083;DHT22;40978;52.850;6.506;2023-12-28T12:54:58;12.00;99.90
55083;DHT22;40978;52.850;6.506;2023-12-28T12:57:27;12.00;99.90
55083;DHT22;40978;52.850;6.506;2023-12-28T12:59:53;12.00;99.90
55083;DHT22;40978;52.850;6.506;2023-12-28T13:02:24;12.00;99.90
55083;DHT22;40978;52.850;6.506;2023-12-28T13:04:55;12.00;99.90
55083;DHT22;40978;52.850;6.506;2023-12-28T13:07:21;12.00;99.90
55083;DHT22;40978;52.850;6.506;2023-12-28T13:09:47;12.00;99.90
55083;DHT22;40978;52.850;6.506;2023-12-28T13:12:12;12.00;99.90
55083;DHT22;40978;52.850;6.506;2023-12-28T13:14:38;12.00;99.90
55083;DHT22;40978;52.850;6.506;2023-12-28T13:17:04;12.00;99.90
55083;DHT22;40978;52.850;6.506;2023-12-28T13:19:29;12.00;99.90
55083;DHT22;40978;52.850;6.506;2023-12-28T13:21:55;12.00;99.90
55083;DHT22;40978;52.850;6.506;2023-12-28T13:24:21;11.90;99.90
55083;DHT22;40978;52.850;6.506;2023-12-28T13:26:47;12.00;99.90
55083;DHT22;40978;52.850;6.506;2023-12-28T13:29:13;11.90;99.90
55083;DHT22;40978;52.850;6.506;2023-12-28T13:31:38;12.00;99.90
55083;DHT22;40978;52.850;6.506;2023-12-28T13:34:04;11.90;99.90
55083;DHT22;40978;52.850;6.506;2023-12-28T13:36:30;11.90;99.90
55083;DHT22;40978;52.850;6.506;2023-12-28T13:38:56;11.90;99.90
55083;DHT22;40978;52.850;6.506;2023-12-28T13:41:22;11.90;99.90
55083;DHT22;40978;52.850;6.506;2023-12-28T13:43:47;11.90;99.90
55083;DHT22;40978;52.850;6.506;2023-12-28T13:46:13;11.90;99.90
55083;DHT22;40978;52.850;6.506;2023-12-28T13:48:39;11.90;99.90
55083;DHT22;40978;52.850;6.506;2023-12-28T13:51:06;11.90;99.90
55083;DHT22;40978;52.850;6.506;2023-12-28T13:53:31;11.90;99.90
55083;DHT22;40978;52.850;6.506;2023-12-28T13:56:01;11.90;99.90
55083;DHT22;40978;52.850;6.506;2023-12-28T13:58:27;11.90;99.90
55083;DHT22;40978;52.850;6.506;2023-12-28T14:00:52;11.90;99.90
55083;DHT22;40978;52.850;6.506;2023-12-28T14:03:18;11.90;99.90
55083;DHT22;40978;52.850;6.506;2023-12-28T14:05:44;11.90;99.90
55083;DHT22;40978;52.850;6.506;2023-12-28T14:08:09;11.90;99.90
55083;DHT22;40978;52.850;6.506;2023-12-28T14:10:36;11.90;99.90
55083;DHT22;40978;52.850;6.506;2023-12-28T14:13:04;11.90;99.90
55083;DHT22;40978;52.850;6.506;2023-12-28T14:15:31;11.90;99.90
55083;DHT22;40978;52.850;6.506;2023-12-28T14:17:56;11.90;99.90
55083;DHT22;40978;52.850;6.506;2023-12-28T14:20:22;11.90;99.90
55083;DHT22;40978;52.850;6.506;2023-12-28T14:22:48;11.90;99.90
55083;DHT22;40978;52.850;6.506;2023-12-28T14:25:14;11.90;99.90
55083;DHT22;40978;52.850;6.506;2023-12-28T14:27:40;11.90;99.90
55083;DHT22;40978;52.850;6.506;2023-12-28T14:30:07;11.90;99.90
55083;DHT22;40978;52.850;6.506;2023-12-28T14:32:35;11.90;99.90
55083;DHT22;40978;52.850;6.506;2023-12-28T14:35:01;11.90;99.90
55083;DHT22;40978;52.850;6.506;2023-12-28T14:37:27;11.90;99.90
55083;DHT22;40978;52.850;6.506;2023-12-28T14:39:52;11.90;99.90
55083;DHT22;40978;52.850;6.506;2023-12-28T14:42:18;11.80;99.90
55083;DHT22;40978;52.850;6.506;2023-12-28T14:44:44;11.80;99.90
55083;DHT22;40978;52.850;6.506;2023-12-28T14:47:09;11.90;99.90
55083;DHT22;40978;52.850;6.506;2023-12-28T14:49:35;11.80;99.90
55083;DHT22;40978;52.850;6.506;2023-12-28T14:52:01;11.80;99.90
55083;DHT22;40978;52.850;6.506;2023-12-28T14:54:26;11.80;99.90
55083;DHT22;40978;52.850;6.506;2023-12-28T14:56:52;11.80;99.90
55083;DHT22;40978;52.850;6.506;2023-12-28T14:59:18;11.80;99.90
55083;DHT22;40978;52.850;6.506;2023-12-28T15:01:43;11.80;99.90
55083;DHT22;40978;52.850;6.506;2023-12-28T15:04:09;11.70;99.90
55083;DHT22;40978;52.850;6.506;2023-12-28T15:06:35;11.80;99.90
55083;DHT22;40978;52.850;6.506;2023-12-28T15:09:01;11.70;99.90
55083;DHT22;40978;52.850;6.506;2023-12-28T15:11:27;11.70;99.90
55083;DHT22;40978;52.850;6.506;2023-12-28T15:13:53;11.70;99.90
55083;DHT22;40978;52.850;6.506;2023-12-28T15:16:20;11.70;99.90
55083;DHT22;40978;52.850;6.506;2023-12-28T15:18:46;11.70;99.90
55083;DHT22;40978;52.850;6.506;2023-12-28T15:21:12;11.70;99.90
55083;DHT22;40978;52.850;6.506;2023-12-28T15:23:38;11.70;99.90
55083;DHT22;40978;52.850;6.506;2023-12-28T15:26:04;11.70;99.90
55083;DHT22;40978;52.850;6.506;2023-12-28T15:28:32;11.60;99.90
55083;DHT22;40978;52.850;6.506;2023-12-28T15:30:57;11.70;99.90
55083;DHT22;40978;52.850;6.506;2023-12-28T15:33:23;11.70;99.90